Time;durP1;ratioP1;P1;durP2;ratioP2;P2;SDS_P1;SDS_P2;PMS_P1;PMS_P2;Temp;Humidity;BMP_temperature;BMP_pressure;BME280_temperature;BME280_humidity;BME280_pressure;Samples;Min_cycle;Max_cycle;Signal;HPM_P1;HPM_P2
2022/02/11 00:00:50;;;;;;;30.90;12.70;;;;;;;4.44;100.00;97064.53;5003286;28;20323;-68
2022/02/11 00:08:20;;;;;;;29.75;14.07;;;;;;;4.47;100.00;97078.28;4986638;28;20130;-69
2022/02/11 00:10:45;;;;;;;27.75;13.07;;;;;;;4.59;100.00;97072.19;4998071;28;20046;-68
2022/02/11 00:13:11;;;;;;;26.48;12.52;;;;;;;4.90;100.00;97072.06;4998380;28;20402;-67
2022/02/11 00:15:41;;;;;;;22.40;12.13;;;;;;;5.03;100.00;97072.22;5003757;28;20142;-68
2022/02/11 00:18:08;;;;;;;26.23;12.77;;;;;;;5.08;100.00;97063.91;4998179;28;20046;-67
2022/02/11 00:20:34;;;;;;;25.70;12.60;;;;;;;4.75;100.00;97051.63;4994607;28;20050;-66
2022/02/11 00:22:59;;;;;;;25.30;12.60;;;;;;;4.78;100.00;97061.84;4996872;28;20062;-68
2022/02/11 00:25:25;;;;;;;25.77;13.77;;;;;;;4.93;100.00;97062.47;4995512;28;20487;-64
2022/02/11 00:33:18;;;;;;;31.77;13.63;;;;;;;5.08;100.00;97058.47;5003197;28;20081;-68
2022/02/11 00:35:50;;;;;;;23.20;11.88;;;;;;;5.12;100.00;97056.72;5002674;28;20062;-65
2022/02/11 00:38:22;;;;;;;26.27;12.70;;;;;;;5.12;100.00;97062.13;4987527;28;20072;-66
2022/02/11 00:45:53;;;;;;;22.63;11.48;;;;;;;5.21;100.00;97095.50;5002546;28;20407;-66
2022/02/11 01:02:11;;;;;;;23.67;11.88;;;;;;;5.21;100.00;97098.22;4981951;28;20591;-65
2022/02/11 01:04:37;;;;;;;25.40;11.93;;;;;;;5.32;100.00;97096.75;4980418;28;20047;-66
2022/02/11 01:07:03;;;;;;;22.42;11.65;;;;;;;5.43;100.00;97088.28;4980505;28;20057;-62
2022/02/11 01:09:29;;;;;;;24.25;12.00;;;;;;;5.40;100.00;97097.84;4984833;28;20081;-68
2022/02/11 01:11:58;;;;;;;27.17;12.77;;;;;;;5.36;100.00;97089.53;4992600;28;20062;-69
2022/02/11 01:14:36;;;;;;;24.50;12.30;;;;;;;5.34;100.00;97096.44;4989489;28;20616;-66
2022/02/11 01:25:04;;;;;;;24.33;13.37;;;;;;;5.34;100.00;97096.44;4980373;28;20470;-69
2022/02/11 01:27:42;;;;;;;23.17;13.82;;;;;;;5.21;100.00;97094.72;4981890;28;20062;-68
2022/02/11 01:35:21;;;;;;;31.00;12.43;;;;;;;5.17;100.00;97073.63;4974044;28;20077;-67
2022/02/11 01:41:12;;;;;;;25.10;12.38;;;;;;;5.20;100.00;97082.25;4977975;28;20442;-68
2022/02/11 02:15:30;;;;;;;18.30;10.27;;;;;;;5.07;100.00;97081.31;4978405;28;20073;-63
2022/02/11 02:31:58;;;;;;;24.15;10.82;;;;;;;5.25;100.00;97071.22;4994649;28;20065;-67
2022/02/11 02:36:53;;;;;;;18.92;10.20;;;;;;;5.26;100.00;97064.69;4944770;28;20051;-69
2022/02/11 02:50:19;;;;;;;17.20;9.52;;;;;;;5.26;100.00;97062.75;4997371;28;20041;-63
2022/02/11 02:58:25;;;;;;;16.50;8.13;;;;;;;5.16;100.00;97053.00;4984809;28;20169;-65
2022/02/11 03:01:16;;;;;;;18.55;8.32;;;;;;;5.23;100.00;97052.53;5017853;28;20090;-67
2022/02/11 04:23:34;;;;;;;10.70;5.55;;;;;;;5.14;100.00;97095.19;5001260;28;20053;-65
2022/02/11 04:55:26;;;;;;;6.22;3.20;;;;;;;4.79;100.00;97153.00;4993908;28;20397;-67
2022/02/11 05:00:39;;;;;;;6.60;3.45;;;;;;;4.95;100.00;97164.19;4999393;28;20419;-68
2022/02/11 05:03:05;;;;;;;7.00;3.30;;;;;;;5.06;100.00;97172.00;5000000;28;20038;-64
2022/02/11 05:05:48;;;;;;;4.30;2.78;;;;;;;5.14;100.00;97166.59;5000817;28;20042;-68
2022/02/11 05:08:33;;;;;;;4.90;2.67;;;;;;;5.19;100.00;97179.22;4990402;28;20050;-67
2022/02/11 05:10:58;;;;;;;5.32;2.80;;;;;;;4.90;100.00;97185.28;4982486;28;20509;-66
2022/02/11 05:13:25;;;;;;;4.75;2.58;;;;;;;5.00;100.00;97190.38;5013349;28;20081;-66
2022/02/11 05:15:50;;;;;;;5.53;3.60;;;;;;;4.99;100.00;97194.22;5001600;28;20424;-67
2022/02/11 05:18:17;;;;;;;6.25;3.33;;;;;;;4.84;100.00;97203.59;4987178;28;20061;-65
2022/02/11 05:20:43;;;;;;;5.40;3.25;;;;;;;4.94;100.00;97208.72;5001211;28;20081;-66
2022/02/11 05:23:10;;;;;;;5.93;3.10;;;;;;;5.02;100.00;97207.13;5000986;28;20084;-64
2022/02/11 05:25:39;;;;;;;5.50;3.08;;;;;;;4.77;100.00;97214.13;4993856;28;20048;-64
2022/02/11 05:28:06;;;;;;;8.15;2.65;;;;;;;4.73;100.00;97211.25;4988286;28;20050;-67
2022/02/11 05:30:33;;;;;;;4.15;2.88;;;;;;;4.87;100.00;97219.25;4996317;28;20050;-65
2022/02/11 05:33:00;;;;;;;2.95;1.90;;;;;;;4.63;100.00;97219.69;4986790;28;20058;-65
2022/02/11 05:35:26;;;;;;;3.53;1.80;;;;;;;4.60;100.00;97236.59;4991944;28;20046;-67
2022/02/11 05:37:52;;;;;;;2.92;1.90;;;;;;;4.55;100.00;97242.94;4991783;28;20038;-67
2022/02/11 05:40:18;;;;;;;4.70;2.10;;;;;;;4.55;100.00;97253.00;4987420;28;20049;-67
2022/02/11 05:42:43;;;;;;;2.92;1.60;;;;;;;4.40;100.00;97256.94;4989194;28;20044;-66
2022/02/11 05:45:10;;;;;;;2.05;1.13;;;;;;;4.42;100.00;97278.34;4982278;28;20044;-68
2022/02/11 05:47:35;;;;;;;2.10;1.30;;;;;;;4.31;100.00;97281.31;4986064;28;20041;-66
2022/02/11 05:50:03;;;;;;;3.33;1.52;;;;;;;4.19;100.00;97290.00;5001789;28;20045;-66
2022/02/11 05:52:33;;;;;;;1.80;1.40;;;;;;;4.14;100.00;97303.72;4999006;28;20053;-68
2022/02/11 05:54:59;;;;;;;1.45;0.95;;;;;;;4.19;100.00;97308.97;4995836;28;20042;-67
2022/02/11 05:57:24;;;;;;;1.67;1.17;;;;;;;4.28;100.00;97316.38;4984369;28;20622;-66
2022/02/11 05:59:50;;;;;;;1.38;1.00;;;;;;;4.05;100.00;97323.72;4997940;28;20926;-68
2022/02/11 06:02:16;;;;;;;2.38;1.52;;;;;;;3.99;100.00;97333.91;4990531;28;20057;-66
2022/02/11 06:04:42;;;;;;;2.50;1.00;;;;;;;4.00;100.00;97330.09;5001924;28;20076;-66
2022/02/11 06:07:07;;;;;;;1.27;1.10;;;;;;;4.08;100.00;97344.81;4986838;28;20073;-64
2022/02/11 06:09:32;;;;;;;1.70;1.08;;;;;;;4.10;100.00;97356.13;4999469;28;20658;-68
2022/02/11 06:11:58;;;;;;;1.45;1.10;;;;;;;3.80;100.00;97355.78;4989783;28;20629;-64
2022/02/11 06:14:24;;;;;;;1.50;1.17;;;;;;;3.91;100.00;97367.19;4992397;28;20049;-65
2022/02/11 06:16:49;;;;;;;1.58;0.98;;;;;;;3.64;100.00;97372.34;4991752;28;20108;-68
2022/02/11 06:19:15;;;;;;;1.38;1.10;;;;;;;3.71;100.00;97379.25;4996403;28;20046;-68
2022/02/11 06:21:40;;;;;;;0.82;0.82;;;;;;;3.66;100.00;97385.59;4995056;28;20137;-67
2022/02/11 06:24:06;;;;;;;2.88;1.20;;;;;;;3.54;100.00;97405.06;4993272;28;20041;-64
2022/02/11 06:26:32;;;;;;;2.15;0.98;;;;;;;3.60;100.00;97400.34;5013642;28;20101;-65
2022/02/11 06:28:57;;;;;;;1.08;0.98;;;;;;;3.55;100.00;97397.78;4997288;28;20125;-66
2022/02/11 06:31:23;;;;;;;2.72;1.00;;;;;;;3.67;100.00;97410.78;4984940;28;20046;-66
2022/02/11 06:33:50;;;;;;;1.20;1.00;;;;;;;3.59;100.00;97413.09;4994948;28;20054;-65
2022/02/11 06:36:16;;;;;;;1.17;1.00;;;;;;;3.57;100.00;97426.16;4979999;28;20049;-64
2022/02/11 06:38:41;;;;;;;1.85;1.10;;;;;;;3.59;100.00;97436.69;4991133;28;20042;-68
2022/02/11 06:41:07;;;;;;;1.55;1.10;;;;;;;3.51;100.00;97440.91;4989539;28;20459;-66
2022/02/11 06:43:32;;;;;;;0.80;0.80;;;;;;;3.49;100.00;97447.72;4987787;28;20050;-68
2022/02/11 06:45:58;;;;;;;2.70;1.17;;;;;;;3.31;100.00;97458.34;4997170;28;20042;-67
2022/02/11 06:48:25;;;;;;;1.73;0.95;;;;;;;3.57;100.00;97472.19;4994985;28;20580;-67
2022/02/11 06:50:51;;;;;;;1.02;0.85;;;;;;;3.51;100.00;97484.25;5001631;28;20042;-65
2022/02/11 06:53:17;;;;;;;1.23;1.00;;;;;;;3.66;100.00;97485.84;4976139;28;20046;-66
2022/02/11 06:55:43;;;;;;;0.93;0.82;;;;;;;3.56;100.00;97494.16;4982866;28;20598;-66
2022/02/11 06:58:10;;;;;;;1.23;0.85;;;;;;;3.52;100.00;97504.00;5000608;28;20038;-66
2022/02/11 07:00:38;;;;;;;1.65;1.00;;;;;;;3.68;100.00;97518.06;5009670;28;20049;-64
2022/02/11 07:03:04;;;;;;;1.02;0.90;;;;;;;3.50;100.00;97514.34;4995950;28;20034;-64
2022/02/11 07:05:29;;;;;;;1.40;0.90;;;;;;;3.45;100.00;97529.56;4999152;28;20132;-66
2022/02/11 07:07:55;;;;;;;1.35;1.20;;;;;;;3.51;100.00;97538.41;4986853;28;20129;-67
2022/02/11 07:10:20;;;;;;;1.35;1.00;;;;;;;3.46;100.00;97549.34;4992645;28;20407;-66
2022/02/11 07:12:46;;;;;;;1.58;1.15;;;;;;;3.43;100.00;97556.13;4998217;28;20422;-64
2022/02/11 07:15:12;;;;;;;2.13;0.90;;;;;;;3.37;100.00;97575.50;4985663;28;20042;-64
2022/02/11 07:17:38;;;;;;;2.00;1.27;;;;;;;3.27;100.00;97581.88;4985685;28;20384;-67
2022/02/11 07:20:06;;;;;;;1.30;1.15;;;;;;;3.34;100.00;97592.34;4981283;28;20104;-64
2022/02/11 07:22:34;;;;;;;1.20;0.98;;;;;;;3.19;100.00;97615.88;5008773;28;20054;-67
2022/02/11 07:25:05;;;;;;;1.48;1.08;;;;;;;3.31;100.00;97618.09;5007766;28;20476;-66
2022/02/11 07:27:30;;;;;;;1.52;1.30;;;;;;;3.30;100.00;97640.88;5006521;28;20132;-67
2022/02/11 07:29:56;;;;;;;1.35;1.10;;;;;;;3.33;100.00;97653.84;5004688;28;20228;-68
2022/02/11 07:32:21;;;;;;;1.95;1.10;;;;;;;3.30;100.00;97650.91;4983093;28;20535;-67
2022/02/11 07:34:47;;;;;;;1.88;1.08;;;;;;;3.24;100.00;97666.41;4986900;28;20458;-67
2022/02/11 07:37:13;;;;;;;1.67;0.95;;;;;;;3.28;100.00;97661.22;4999127;28;20444;-67
2022/02/11 07:39:38;;;;;;;2.88;1.10;;;;;;;3.26;100.00;97661.53;4995900;28;20046;-65
2022/02/11 07:42:04;;;;;;;1.95;1.17;;;;;;;3.10;100.00;97671.78;4997752;28;20116;-64
2022/02/11 07:44:29;;;;;;;1.25;0.90;;;;;;;3.10;100.00;97674.50;5003110;28;20041;-66
2022/02/11 07:46:55;;;;;;;1.00;0.90;;;;;;;2.98;100.00;97685.75;5000657;28;20042;-66
2022/02/11 07:49:20;;;;;;;0.95;0.90;;;;;;;3.02;100.00;97697.59;4987207;28;20042;-67
2022/02/11 07:51:46;;;;;;;1.00;0.90;;;;;;;3.20;100.00;97695.97;5000663;28;20042;-68
2022/02/11 07:54:12;;;;;;;1.27;0.85;;;;;;;3.14;100.00;97702.56;4999257;28;20128;-67
2022/02/11 07:56:38;;;;;;;1.75;1.00;;;;;;;3.29;100.00;97709.66;5004152;28;20131;-66
2022/02/11 07:59:04;;;;;;;2.13;1.30;;;;;;;3.06;100.00;97711.34;5001102;28;20034;-63
2022/02/11 08:01:29;;;;;;;1.80;1.20;;;;;;;3.18;100.00;97721.75;4994410;28;20053;-66
2022/02/11 08:03:56;;;;;;;2.13;1.50;;;;;;;3.03;100.00;97726.28;4996121;28;20054;-67
2022/02/11 08:06:21;;;;;;;2.08;1.65;;;;;;;3.24;100.00;97732.22;4994925;28;21542;-68
2022/02/11 08:08:47;;;;;;;2.78;1.90;;;;;;;3.33;100.00;97745.91;4998710;28;20056;-68
2022/02/11 08:11:12;;;;;;;3.72;1.63;;;;;;;3.43;100.00;97753.84;5013551;28;20121;-66
2022/02/11 08:13:38;;;;;;;2.60;2.00;;;;;;;3.41;100.00;97760.66;5004232;28;20513;-67
2022/02/11 08:16:07;;;;;;;3.55;1.83;;;;;;;3.31;100.00;97768.94;4992755;28;20061;-65
2022/02/11 08:18:33;;;;;;;2.65;1.77;;;;;;;3.24;100.00;97774.72;4999203;28;20046;-67
2022/02/11 08:20:58;;;;;;;3.30;1.55;;;;;;;3.16;100.00;97778.09;4998737;28;20446;-67
2022/02/11 08:23:25;;;;;;;4.63;1.70;;;;;;;3.17;100.00;97782.38;4979369;28;20592;-68
2022/02/11 08:25:51;;;;;;;2.35;1.83;;;;;;;3.16;100.00;97787.00;4999380;28;20042;-65
2022/02/11 08:28:17;;;;;;;3.58;1.90;;;;;;;3.21;100.00;97794.25;4999421;28;20034;-66
2022/02/11 08:30:44;;;;;;;2.60;1.95;;;;;;;3.18;100.00;97808.38;4998087;28;20104;-65
2022/02/11 08:33:10;;;;;;;3.00;1.90;;;;;;;3.17;100.00;97810.28;5000759;28;20081;-65
2022/02/11 08:35:35;;;;;;;2.70;1.70;;;;;;;3.19;100.00;97818.91;5002536;28;20065;-66
2022/02/11 08:38:01;;;;;;;2.95;2.08;;;;;;;3.16;100.00;97822.19;5004790;28;20109;-66
2022/02/11 08:40:26;;;;;;;2.65;2.10;;;;;;;3.22;100.00;97822.94;4995813;28;20053;-68
2022/02/11 08:42:52;;;;;;;8.73;1.85;;;;;;;3.32;100.00;97819.31;5004072;28;20061;-67
2022/02/11 08:45:17;;;;;;;3.38;1.73;;;;;;;3.40;100.00;97830.28;4990253;28;20061;-65
2022/02/11 08:47:43;;;;;;;3.55;1.60;;;;;;;3.48;100.00;97836.94;5003539;28;20034;-67
2022/02/11 08:50:14;;;;;;;3.63;2.35;;;;;;;3.53;100.00;97841.47;5008044;28;20034;-65
2022/02/11 08:52:40;;;;;;;4.32;2.80;;;;;;;3.36;100.00;97852.81;5005639;28;20074;-67
2022/02/11 08:55:06;;;;;;;3.47;2.10;;;;;;;3.66;100.00;97857.00;4989577;28;20121;-65
2022/02/11 08:57:32;;;;;;;2.67;2.00;;;;;;;3.84;100.00;97858.09;5001731;28;20208;-64
2022/02/11 08:59:58;;;;;;;6.68;3.30;;;;;;;3.98;100.00;97861.69;4999214;28;20038;-66
2022/02/11 09:02:23;;;;;;;1.77;1.23;;;;;;;3.75;100.00;97855.25;4986498;28;20049;-67
2022/02/11 09:04:51;;;;;;;2.00;1.25;;;;;;;3.93;100.00;97867.19;5003147;28;20100;-68
2022/02/11 09:07:18;;;;;;;3.05;1.70;;;;;;;4.07;100.00;97878.09;4997475;28;20053;-68
2022/02/11 09:09:44;;;;;;;2.13;1.48;;;;;;;3.94;100.00;97879.66;5002850;28;20084;-68
2022/02/11 09:12:09;;;;;;;4.00;1.85;;;;;;;3.89;100.00;97882.44;4996394;28;20046;-68
2022/02/11 09:14:35;;;;;;;4.38;2.50;;;;;;;3.90;100.00;97889.44;5002470;28;20376;-68
2022/02/11 09:17:00;;;;;;;5.03;2.53;;;;;;;4.16;100.00;97891.75;5002213;28;20080;-68
2022/02/11 09:19:26;;;;;;;5.95;3.13;;;;;;;4.19;100.00;97902.81;4997096;28;20060;-68
2022/02/11 09:21:51;;;;;;;4.97;2.90;;;;;;;4.71;100.00;97904.69;5002799;28;20072;-68
2022/02/11 09:24:16;;;;;;;6.25;2.10;;;;;;;5.00;99.27;97903.63;4997051;28;20416;-68
2022/02/11 09:26:42;;;;;;;3.10;1.63;;;;;;;5.53;95.10;97906.63;5001750;28;20048;-69
2022/02/11 09:29:07;;;;;;;3.22;1.55;;;;;;;6.16;93.27;97908.81;4991514;28;20076;-67
2022/02/11 09:31:33;;;;;;;2.67;1.80;;;;;;;6.64;90.05;97909.00;5001820;28;20132;-68
2022/02/11 09:34:11;;;;;;;3.30;1.75;;;;;;;7.32;82.53;97910.78;5002401;28;20050;-67
2022/02/11 09:36:39;;;;;;;3.58;1.60;;;;;;;6.76;85.46;97923.97;5000412;28;20411;-69
2022/02/11 09:39:07;;;;;;;3.00;2.17;;;;;;;6.79;81.94;97918.72;4997930;28;20049;-64
2022/02/11 09:41:35;;;;;;;7.45;1.98;;;;;;;6.81;82.59;97915.69;5001167;28;20045;-68
2022/02/11 09:44:04;;;;;;;3.42;2.30;;;;;;;6.82;nan;97918.06;5001424;28;20394;-69
2022/02/11 09:46:31;;;;;;;3.97;2.40;;;;;;;7.73;81.00;97923.25;4999888;28;21330;-67
2022/02/11 09:48:57;;;;;;;3.95;2.10;;;;;;;8.58;73.33;97928.25;5001659;28;20044;-68
2022/02/11 09:51:22;;;;;;;3.90;2.25;;;;;;;9.51;69.12;97934.91;4994783;28;20696;-68
2022/02/11 09:53:48;;;;;;;3.85;2.05;;;;;;;10.38;65.46;97928.06;5001778;28;20038;-68
2022/02/11 09:56:14;;;;;;;5.18;2.17;;;;;;;9.56;65.83;97928.41;4996530;28;20049;-69
2022/02/11 09:58:40;;;;;;;3.83;2.30;;;;;;;10.44;63.07;97925.91;5000081;28;20061;-67
2022/02/11 10:01:06;;;;;;;8.65;2.30;;;;;;;10.76;60.70;97929.03;4996369;28;20034;-67
2022/02/11 10:03:31;;;;;;;3.85;2.00;;;;;;;9.27;65.89;97932.72;5001512;28;20526;-69
2022/02/11 10:05:58;;;;;;;3.25;2.03;;;;;;;9.92;63.12;97936.13;5012594;28;20042;-68
2022/02/11 10:08:25;;;;;;;5.07;1.88;;;;;;;9.61;60.49;97946.59;5010661;28;20547;-68
2022/02/11 10:10:55;;;;;;;3.92;2.08;;;;;;;8.79;61.08;97948.31;5002718;28;20065;-66
2022/02/11 10:13:31;;;;;;;3.03;1.80;;;;;;;7.46;63.94;97944.97;4995525;28;20060;-68
2022/02/11 10:16:11;;;;;;;5.70;1.92;;;;;;;8.07;63.10;97952.50;5001206;28;20084;-65
2022/02/11 10:18:40;;;;;;;4.03;2.10;;;;;;;7.92;61.46;97961.91;5001224;28;20042;-66
2022/02/11 10:21:09;;;;;;;4.00;1.83;;;;;;;7.73;63.87;97958.69;4997060;28;20042;-68
2022/02/11 10:23:42;;;;;;;6.00;2.13;;;;;;;8.38;61.32;97963.25;5001221;28;20192;-68
2022/02/11 10:26:09;;;;;;;3.85;1.88;;;;;;;9.28;59.49;97958.94;4995536;28;20132;-66
2022/02/11 10:28:43;;;;;;;4.05;1.88;;;;;;;9.46;59.30;97967.09;5002969;28;20073;-69
2022/02/11 10:31:20;;;;;;;3.00;1.80;;;;;;;9.69;57.10;97967.66;4999334;28;20088;-68
2022/02/11 10:34:08;;;;;;;5.22;1.92;;;;;;;8.90;60.33;97965.16;5018180;28;20033;-69
2022/02/11 10:36:38;;;;;;;6.28;2.17;;;;;;;9.05;60.30;97971.25;5001554;28;20050;-68
2022/02/11 10:39:14;;;;;;;3.10;2.05;;;;;;;8.47;61.31;97967.97;4998018;28;20042;-66
2022/02/11 10:41:43;;;;;;;6.13;1.90;;;;;;;8.36;62.34;97962.78;5001716;28;20447;-68
2022/02/11 10:44:19;;;;;;;8.38;2.03;;;;;;;8.92;60.59;97965.66;4995778;28;20046;-68
2022/02/11 10:46:53;;;;;;;5.53;1.63;;;;;;;9.02;58.43;97971.88;5000955;28;20057;-69
2022/02/11 10:49:30;;;;;;;9.18;2.58;;;;;;;9.25;60.24;97964.28;4995960;28;20041;-68
2022/02/11 10:52:07;;;;;;;3.15;2.03;;;;;;;8.67;58.96;97972.75;5000616;28;20377;-67
2022/02/11 10:54:35;;;;;;;3.75;1.88;;;;;;;10.18;53.68;97970.72;4999965;28;20503;-66
2022/02/11 10:57:09;;;;;;;3.80;1.75;;;;;;;10.43;54.57;97959.94;5000784;28;20073;-69
2022/02/11 10:59:40;;;;;;;5.20;1.83;;;;;;;10.09;51.57;97953.56;4976399;28;20054;-69
2022/02/11 11:02:07;;;;;;;2.17;1.52;;;;;;;11.27;47.03;97959.75;4965569;28;20054;-67
2022/02/11 11:04:33;;;;;;;5.55;1.70;;;;;;;10.61;51.18;97955.13;4972096;28;20038;-68
2022/02/11 11:06:59;;;;;;;5.68;1.83;;;;;;;10.88;49.22;97951.78;4975864;28;20052;-69
2022/02/11 11:09:26;;;;;;;6.22;2.00;;;;;;;11.33;46.75;97950.16;4974637;28;20420;-69
2022/02/11 11:11:59;;;;;;;4.75;1.80;;;;;;;11.03;46.81;97955.81;4978033;28;20034;-68
2022/02/11 11:14:24;;;;;;;5.40;1.50;;;;;;;9.77;49.43;97964.84;4976924;28;20713;-67
2022/02/11 11:16:52;;;;;;;9.18;1.70;;;;;;;10.08;47.51;97971.09;4981014;28;20464;-69
2022/02/11 11:19:18;;;;;;;5.60;1.70;;;;;;;10.66;47.23;97966.66;4976405;28;20038;-68
2022/02/11 11:22:10;;;;;;;7.03;1.85;;;;;;;11.00;46.22;97962.00;4996286;28;20493;-67
2022/02/11 11:24:43;;;;;;;8.75;2.17;;;;;;;10.90;44.90;97963.22;4980443;28;20093;-69
2022/02/11 11:27:08;;;;;;;6.05;2.25;;;;;;;10.97;43.79;97965.41;4975622;28;20450;-69
2022/02/11 11:29:33;;;;;;;5.28;1.38;;;;;;;10.97;41.87;97954.44;4980651;28;20038;-69
2022/02/11 11:32:02;;;;;;;5.97;1.30;;;;;;;11.54;40.88;97947.34;4961477;28;20092;-70
2022/02/11 11:34:32;;;;;;;9.70;1.60;;;;;;;11.81;40.40;97950.53;4956522;28;20050;-68
2022/02/11 11:37:05;;;;;;;3.72;1.45;;;;;;;11.35;42.13;97953.38;4960851;28;20047;-68
2022/02/11 11:39:31;;;;;;;2.72;1.25;;;;;;;11.57;43.25;97951.34;4960361;28;20038;-69
2022/02/11 11:42:14;;;;;;;7.18;1.60;;;;;;;10.22;45.57;97948.94;4967030;28;20388;-69
2022/02/11 11:44:42;;;;;;;6.35;1.50;;;;;;;10.00;46.00;97952.81;4976724;28;20210;-66
2022/02/11 11:47:13;;;;;;;3.72;1.33;;;;;;;10.58;43.74;97953.03;4956150;28;20047;-67
2022/02/11 11:49:41;;;;;;;6.05;1.63;;;;;;;11.00;43.74;97950.22;4961196;28;20039;-69
2022/02/11 11:52:09;;;;;;;3.08;1.23;;;;;;;11.23;42.43;97940.44;4955394;28;20376;-68
2022/02/11 11:54:35;;;;;;;1.90;1.17;;;;;;;12.49;40.05;97940.81;4961384;28;20058;-68
2022/02/11 11:57:04;;;;;;;3.45;1.25;;;;;;;13.12;37.45;97943.72;4960890;28;20070;-67
2022/02/11 11:59:32;;;;;;;2.72;1.20;;;;;;;12.89;38.29;97942.69;4959590;28;20109;-69
2022/02/11 12:02:05;;;;;;;4.40;1.20;;;;;;;12.94;36.68;97929.50;4961564;28;20067;-69
2022/02/11 12:04:49;;;;;;;5.13;1.10;;;;;;;12.31;37.39;97934.81;4959018;28;20055;-65
2022/02/11 12:07:16;;;;;;;3.72;1.30;;;;;;;12.63;36.87;97935.72;4958056;28;20109;-66
2022/02/11 12:09:47;;;;;;;5.70;1.23;;;;;;;11.60;39.61;97934.97;4964802;28;20046;-64
2022/02/11 12:12:15;;;;;;;8.15;1.92;;;;;;;11.23;41.96;97928.66;4959439;28;20194;-64
2022/02/11 12:14:42;;;;;;;3.90;1.65;;;;;;;11.63;41.58;97917.03;4964525;28;20039;-69
2022/02/11 12:17:11;;;;;;;12.15;1.65;;;;;;;10.39;43.01;97929.69;4959857;28;20058;-63
2022/02/11 12:19:37;;;;;;;3.85;1.77;;;;;;;10.05;42.71;97930.72;4964802;28;20054;-64
2022/02/11 12:22:07;;;;;;;5.93;1.88;;;;;;;9.99;44.10;97937.50;4962942;28;20047;-71
2022/02/11 12:27:30;;;;;;;7.28;1.70;;;;;;;10.89;41.53;97938.88;4959287;28;20039;-64
2022/02/11 12:30:10;;;;;;;3.03;1.35;;;;;;;11.25;39.76;97937.34;4963101;28;20503;-65
2022/02/11 12:32:39;;;;;;;;;;;;;;;11.92;37.34;97939.91;4965261;28;20085;-64
2022/02/11 12:35:07;;;;;;;6.82;1.98;;;;;;;12.45;36.32;97928.94;4958571;28;19918;-66
2022/02/11 12:37:34;;;;;;;4.22;1.40;;;;;;;11.13;35.98;97932.66;4963692;28;20082;-68
2022/02/11 12:40:15;;;;;;;4.80;1.55;;;;;;;12.90;34.95;97936.84;4964538;28;20100;-61
2022/02/11 12:42:46;;;;;;;5.35;1.33;;;;;;;12.38;36.47;97943.25;4964457;28;20042;-63
2022/02/11 12:45:14;;;;;;;1.90;1.05;;;;;;;12.90;35.79;97952.56;4957116;28;20039;-69
2022/02/11 12:47:41;;;;;;;3.33;1.20;;;;;;;12.98;34.59;97951.59;4966745;28;20042;-67
2022/02/11 12:50:09;;;;;;;2.55;1.27;;;;;;;10.80;36.90;97935.41;4969988;28;20137;-65
2022/02/11 12:52:36;;;;;;;4.28;1.45;;;;;;;10.71;37.66;97932.75;4968263;28;20125;-65
2022/02/11 12:55:16;;;;;;;5.57;1.13;;;;;;;11.20;37.25;97924.69;4972239;28;20061;-67
2022/02/11 12:57:44;;;;;;;6.20;1.58;;;;;;;10.99;37.96;97929.44;4973810;28;20034;-63
2022/02/11 13:00:20;;;;;;;4.35;1.33;;;;;;;11.32;36.15;97929.34;4961407;28;20043;-65
2022/02/11 13:02:47;;;;;;;2.47;1.15;;;;;;;10.64;38.07;97936.06;4982963;28;20038;-63
2022/02/11 13:05:15;;;;;;;11.05;1.67;;;;;;;10.70;38.66;97937.44;4984633;28;20459;-65
2022/02/11 13:07:44;;;;;;;5.30;1.27;;;;;;;9.67;39.50;97934.31;4974003;28;20503;-64
2022/02/11 13:10:16;;;;;;;3.38;1.30;;;;;;;11.89;37.57;97929.59;4967881;28;20046;-62
2022/02/11 13:12:44;;;;;;;3.47;1.15;;;;;;;11.06;37.65;97938.69;4972823;28;20089;-65
2022/02/11 13:15:15;;;;;;;5.70;1.42;;;;;;;10.94;38.01;97938.66;4968764;28;20120;-63
2022/02/11 13:17:42;;;;;;;6.18;1.45;;;;;;;10.95;37.71;97934.78;4975069;28;20068;-66
2022/02/11 13:20:11;;;;;;;2.83;1.40;;;;;;;9.10;40.81;97938.28;4975630;28;20096;-66
2022/02/11 13:22:38;;;;;;;3.35;1.45;;;;;;;9.09;41.06;97933.94;4971815;28;20806;-66
2022/02/11 13:25:05;;;;;;;5.53;1.42;;;;;;;9.00;41.25;97947.63;4958971;28;20047;-72
2022/02/11 13:27:48;;;;;;;11.07;1.38;;;;;;;10.18;39.98;97937.06;4963838;28;20042;-63
2022/02/11 13:30:24;;;;;;;4.40;1.42;;;;;;;9.63;40.44;97941.59;4962555;28;20065;-63
2022/02/11 13:32:51;;;;;;;10.35;2.22;;;;;;;10.05;39.90;97933.47;4975613;28;20047;-63
2022/02/11 13:35:16;;;;;;;5.20;1.60;;;;;;;9.20;41.31;97935.19;4968232;28;20134;-65
2022/02/11 13:37:58;;;;;;;3.35;1.55;;;;;;;9.80;41.00;97940.72;4970484;28;20134;-64
2022/02/11 13:40:26;;;;;;;5.25;1.40;;;;;;;9.64;40.00;97935.00;4993058;28;20191;-68
2022/02/11 13:43:01;;;;;;;3.03;1.10;;;;;;;9.45;40.09;97944.41;4990224;28;20076;-66
2022/02/11 13:45:28;;;;;;;7.97;2.00;;;;;;;8.82;40.32;97944.13;4978594;28;20070;-64
2022/02/11 13:48:00;;;;;;;5.53;1.48;;;;;;;8.98;42.37;97947.97;4975151;28;20113;-63
2022/02/11 13:50:26;;;;;;;5.72;1.50;;;;;;;9.08;41.82;97948.75;4965852;28;20050;-68
2022/02/11 13:53:06;;;;;;;4.88;1.65;;;;;;;8.99;42.40;97946.03;4963711;28;20046;-65
2022/02/11 13:55:32;;;;;;;4.10;1.45;;;;;;;8.32;44.24;97950.91;4962630;28;20082;-66
2022/02/11 13:58:15;;;;;;;5.00;1.30;;;;;;;8.17;43.23;97957.63;4978397;28;20451;-65
2022/02/11 14:00:41;;;;;;;3.92;1.35;;;;;;;8.03;45.21;97959.69;4962510;28;20511;-64
2022/02/11 14:03:07;;;;;;;5.45;1.20;;;;;;;8.39;43.34;97956.69;4958084;28;20078;-65
2022/02/11 14:05:46;;;;;;;4.20;1.67;;;;;;;7.97;43.72;97955.53;4966748;28;20042;-65
2022/02/11 14:08:14;;;;;;;2.63;1.40;;;;;;;8.14;43.80;97955.56;4977346;28;20047;-69
2022/02/11 14:10:40;;;;;;;9.30;1.33;;;;;;;8.08;45.29;97962.25;4969126;28;20050;-64
2022/02/11 14:13:06;;;;;;;8.68;1.75;;;;;;;7.80;45.73;97956.31;4959458;28;20069;-65
2022/02/11 14:15:32;;;;;;;4.63;1.52;;;;;;;7.83;46.16;97959.19;4961086;28;20054;-64
2022/02/11 14:17:58;;;;;;;5.57;1.45;;;;;;;7.61;46.28;97960.09;4963289;28;20043;-66
2022/02/11 14:20:23;;;;;;;7.53;1.75;;;;;;;7.82;45.77;97960.31;4969208;28;20051;-67
2022/02/11 14:22:50;;;;;;;3.83;1.50;;;;;;;7.95;46.11;97961.28;4981799;28;20070;-63
2022/02/11 14:25:15;;;;;;;7.22;2.38;;;;;;;7.96;46.34;97959.34;4976472;28;20038;-68
2022/02/11 14:27:40;;;;;;;4.53;1.38;;;;;;;7.77;45.00;97952.28;4982110;28;20111;-64
2022/02/11 14:30:06;;;;;;;7.18;1.77;;;;;;;7.72;45.72;97957.06;4974435;28;20050;-66
2022/02/11 14:32:33;;;;;;;7.28;1.73;;;;;;;7.90;46.08;97955.19;4982592;28;20144;-66
2022/02/11 14:34:58;;;;;;;6.53;1.80;;;;;;;7.94;46.00;97969.78;4982857;28;20491;-66
2022/02/11 14:37:24;;;;;;;4.30;1.40;;;;;;;8.23;44.30;97970.00;4971211;28;20076;-67
2022/02/11 14:39:49;;;;;;;7.15;1.42;;;;;;;8.65;43.48;97971.47;4978596;28;20085;-65
2022/02/11 14:42:15;;;;;;;6.13;1.63;;;;;;;8.06;44.68;97963.72;4971090;28;20049;-65
2022/02/11 14:44:40;;;;;;;6.45;1.60;;;;;;;8.16;46.18;97955.22;4982471;28;20396;-68
2022/02/11 14:47:10;;;;;;;4.45;1.38;;;;;;;7.53;44.94;97958.16;4992905;28;20057;-66
2022/02/11 14:49:37;;;;;;;5.15;1.52;;;;;;;7.88;44.81;97954.69;5002213;28;20065;-64
2022/02/11 14:52:07;;;;;;;3.55;1.30;;;;;;;8.06;44.28;97950.88;4987957;28;20044;-72
2022/02/11 14:54:35;;;;;;;5.05;1.25;;;;;;;7.85;45.55;97950.69;4988318;28;20079;-68
2022/02/11 14:57:01;;;;;;;4.65;1.10;;;;;;;7.85;45.78;97956.94;4993155;28;20070;-69
2022/02/11 14:59:26;;;;;;;4.85;1.30;;;;;;;8.01;45.73;97954.56;4989686;28;20074;-66
2022/02/11 15:01:53;;;;;;;5.05;1.42;;;;;;;7.82;46.11;97948.59;4989311;28;20129;-65
2022/02/11 15:04:19;;;;;;;5.75;1.15;;;;;;;7.92;44.49;97966.56;4996146;28;20038;-67
2022/02/11 15:06:47;;;;;;;5.50;1.27;;;;;;;8.15;44.71;97959.88;4992255;28;20099;-65
2022/02/11 15:09:13;;;;;;;3.25;1.13;;;;;;;7.48;46.30;97961.00;4990644;28;20042;-66
2022/02/11 15:11:39;;;;;;;8.20;2.13;;;;;;;7.16;46.13;97956.72;5002551;28;20624;-64
2022/02/11 15:14:05;;;;;;;3.45;1.50;;;;;;;7.37;46.33;97965.16;4992376;28;20133;-71
2022/02/11 15:16:30;;;;;;;5.55;1.10;;;;;;;7.08;48.20;97967.25;4999757;28;20041;-64
2022/02/11 15:18:55;;;;;;;4.03;1.50;;;;;;;6.93;48.04;97970.34;4994764;28;20050;-66
2022/02/11 15:21:21;;;;;;;5.20;1.30;;;;;;;6.70;47.67;97977.75;4971015;28;20528;-66
2022/02/11 15:23:47;;;;;;;4.95;2.05;;;;;;;6.95;48.02;97970.03;4976875;28;20042;-65